Airport ID:1G3
Update Time (UTC):25/06/2021 10:40
Wind Speed (Knots):6
Wind Direction (Magnetic):180
Temperature (°C):19
Dew Point (°C):15
Humidity (%):77
Altimeter (inHg):30.16
Density Altitude (Feet):
Visibility:10+
Clouds (Hundreds of feet):***
Present Weather:
METAR:METAR 1G3 251035Z AUTO 18006KT 10SM 19/15 A3016 RMK A01

The data displayed is for advisory purposes only and is not to be used for flight planning or operations.